createdAt,value
2022-09-10T00:01:40.858Z,15.40
2022-09-10T00:04:13.218Z,15.44
2022-09-10T00:06:42.615Z,15.42
2022-09-10T00:09:13.107Z,15.52
2022-09-10T00:11:42.382Z,15.61
2022-09-10T00:14:19.864Z,15.43
2022-09-10T00:16:49.346Z,15.48
2022-09-10T00:19:19.113Z,15.50
2022-09-10T00:21:47.243Z,15.45
2022-09-10T00:24:15.899Z,15.46
2022-09-10T00:26:44.389Z,15.29
2022-09-10T00:29:15.802Z,15.20
2022-09-10T00:31:44.846Z,15.24
2022-09-10T00:34:15.309Z,15.28
2022-09-10T00:36:45.503Z,15.28
2022-09-10T00:39:19.163Z,15.30
2022-09-10T00:41:49.786Z,15.12
2022-09-10T00:44:42.625Z,14.94
2022-09-10T00:47:35.352Z,15.07
2022-09-10T00:50:29.501Z,15.15
2022-09-10T00:53:02.597Z,14.89
2022-09-10T00:55:32.938Z,14.77
2022-09-10T00:58:04.412Z,14.84
2022-09-10T01:00:33.329Z,14.79
2022-09-10T01:03:02.958Z,14.76
2022-09-10T01:05:31.578Z,14.53
2022-09-10T01:08:00.187Z,14.42
2022-09-10T01:10:36.018Z,14.40
2022-09-10T01:13:13.406Z,14.38
2022-09-10T01:16:00.483Z,14.25
2022-09-10T01:19:04.286Z,13.99
2022-09-10T01:22:03.744Z,13.56
2022-09-10T01:25:08.892Z,13.28
2022-09-10T01:27:48.973Z,13.21
2022-09-10T01:30:25.386Z,13.28
2022-09-10T01:33:24.512Z,13.12
2022-09-10T01:36:08.198Z,13.07
2022-09-10T01:38:43.312Z,12.86
2022-09-10T01:41:12.604Z,12.65
2022-09-10T01:43:42.963Z,12.57
2022-09-10T01:46:58.875Z,12.45
2022-09-10T01:49:46.748Z,12.26
2022-09-10T01:52:32.897Z,12.06
2022-09-10T01:55:40.003Z,11.95
2022-09-10T01:58:25.029Z,11.83
2022-09-10T02:01:21.511Z,11.69
2022-09-10T02:03:55.261Z,11.57
2022-09-10T02:06:29.539Z,11.42
2022-09-10T02:08:59.391Z,11.30
2022-09-10T02:11:28.494Z,11.26
2022-09-10T02:13:57.221Z,11.12
2022-09-10T02:16:32.471Z,11.02
2022-09-10T02:19:03.081Z,10.92
2022-09-10T02:21:33.328Z,10.82
2022-09-10T02:24:09.075Z,10.75
2022-09-10T02:26:44.549Z,10.63
2022-09-10T02:29:16.577Z,10.63
2022-09-10T02:31:45.873Z,10.69
2022-09-10T02:34:14.626Z,10.71
2022-09-10T02:36:44.089Z,10.57
2022-09-10T02:39:12.703Z,10.50
2022-09-10T02:41:42.144Z,10.39
2022-09-10T02:44:10.752Z,10.36
2022-09-10T02:46:39.545Z,10.41
2022-09-10T02:49:08.306Z,10.41
2022-09-10T02:51:38.265Z,10.44
2022-09-10T02:54:07.169Z,10.49
2022-09-10T02:56:36.023Z,10.55
2022-09-10T02:59:07.501Z,10.50
2022-09-10T03:01:36.469Z,10.45
2022-09-10T03:04:04.855Z,10.43
2022-09-10T03:06:33.882Z,10.38
2022-09-10T03:09:03.600Z,10.34
2022-09-10T03:11:32.602Z,10.26
2022-09-10T03:14:01.005Z,10.22
2022-09-10T03:16:29.572Z,10.30
2022-09-10T03:18:58.435Z,10.41
2022-09-10T03:21:27.640Z,10.47
2022-09-10T03:23:57.172Z,10.34
2022-09-10T03:26:26.445Z,10.29
2022-09-10T03:28:55.077Z,10.35
2022-09-10T03:31:23.154Z,10.35
2022-09-10T03:33:52.329Z,10.34
2022-09-10T03:36:22.263Z,10.34
2022-09-10T03:38:51.482Z,10.26
2022-09-10T03:41:20.220Z,10.24
2022-09-10T03:43:49.169Z,10.22
2022-09-10T03:46:18.124Z,10.21
2022-09-10T03:48:46.620Z,10.21
2022-09-10T03:51:15.394Z,10.21
2022-09-10T03:53:44.995Z,10.22
2022-09-10T03:56:13.746Z,10.12
2022-09-10T03:58:42.383Z,10.15
2022-09-10T04:01:11.024Z,10.02
2022-09-10T04:03:39.654Z,10.03
2022-09-10T04:06:15.134Z,10.02
2022-09-10T04:08:47.018Z,10.08
2022-09-10T04:11:15.669Z,10.16
2022-09-10T04:13:43.841Z,10.23
2022-09-10T04:16:13.361Z,10.32
2022-09-10T04:18:41.545Z,10.34
2022-09-10T04:21:10.413Z,10.33
2022-09-10T04:23:39.572Z,10.34
2022-09-10T04:26:19.557Z,10.28
2022-09-10T04:28:47.927Z,10.29
2022-09-10T04:31:16.738Z,10.23
2022-09-10T04:33:46.363Z,10.07
2022-09-10T04:36:15.259Z,10.00
2022-09-10T04:38:45.392Z,9.98
2022-09-10T04:41:16.864Z,9.94
2022-09-10T04:43:45.464Z,10.02
2022-09-10T04:46:14.070Z,10.02
2022-09-10T04:48:43.035Z,10.13
2022-09-10T04:51:16.538Z,10.20
2022-09-10T04:53:47.223Z,10.27
2022-09-10T04:56:16.638Z,10.27
2022-09-10T04:58:45.778Z,10.25
2022-09-10T05:01:15.009Z,10.31
2022-09-10T05:03:43.679Z,10.21
2022-09-10T05:06:12.443Z,10.09
2022-09-10T05:08:41.133Z,10.03
2022-09-10T05:11:09.531Z,9.99
2022-09-10T05:13:38.243Z,9.79
2022-09-10T05:16:07.067Z,9.71
2022-09-10T05:18:36.436Z,9.57
2022-09-10T05:21:06.560Z,9.39
2022-09-10T05:23:34.955Z,9.31
2022-09-10T05:26:03.698Z,9.26
2022-09-10T05:28:32.343Z,9.22
2022-09-10T05:31:01.035Z,9.30
2022-09-10T05:33:29.736Z,9.39
2022-09-10T05:35:58.357Z,9.45
2022-09-10T05:38:27.580Z,9.52
2022-09-10T05:40:57.920Z,9.48
2022-09-10T05:43:25.855Z,9.49
2022-09-10T05:45:55.184Z,9.46
2022-09-10T05:48:23.858Z,9.35
2022-09-10T05:50:52.375Z,9.29
2022-09-10T05:53:21.004Z,9.12
2022-09-10T05:55:50.911Z,8.98
2022-09-10T05:58:19.496Z,9.00
2022-09-10T06:00:52.119Z,8.92
2022-09-10T06:03:21.104Z,8.93
2022-09-10T06:05:51.802Z,8.92
2022-09-10T06:08:24.383Z,8.86
2022-09-10T06:11:07.023Z,8.84
2022-09-10T06:13:36.776Z,8.84
2022-09-10T06:16:06.388Z,8.84
2022-09-10T06:18:35.554Z,8.77
2022-09-10T06:21:10.301Z,8.74
2022-09-10T06:23:40.375Z,8.66
2022-09-10T06:26:13.116Z,8.60
2022-09-10T06:28:42.300Z,8.46
2022-09-10T06:31:15.480Z,8.48
2022-09-10T06:33:44.517Z,8.48
2022-09-10T06:36:13.095Z,8.55
2022-09-10T06:38:42.328Z,8.61
2022-09-10T06:41:15.200Z,8.58
2022-09-10T06:43:44.531Z,8.61
2022-09-10T06:46:54.898Z,8.64
2022-09-10T06:49:07.768Z,8.72
2022-09-10T06:51:36.468Z,8.67
2022-09-10T06:54:05.306Z,8.79
2022-09-10T06:56:33.612Z,8.84
2022-09-10T06:59:02.666Z,8.80
2022-09-10T07:01:31.692Z,8.74
2022-09-10T07:04:02.329Z,8.77
2022-09-10T07:06:36.383Z,8.75
2022-09-10T07:09:06.121Z,8.70
2022-09-10T07:11:39.202Z,8.68
2022-09-10T07:14:13.744Z,8.67
2022-09-10T07:16:46.755Z,8.69
2022-09-10T07:19:16.383Z,8.56
2022-09-10T07:21:46.056Z,8.53
2022-09-10T07:24:15.417Z,8.49
2022-09-10T07:26:43.744Z,8.36
2022-09-10T07:29:13.312Z,8.40
2022-09-10T07:31:44.634Z,8.38
2022-09-10T07:34:14.303Z,8.35
2022-09-10T07:36:42.934Z,8.43
2022-09-10T07:39:12.543Z,8.40
2022-09-10T07:41:41.147Z,8.42
2022-09-10T07:44:09.737Z,8.44
2022-09-10T07:46:39.223Z,8.40
2022-09-10T07:49:07.929Z,8.26
2022-09-10T07:51:36.674Z,8.12
2022-09-10T07:54:06.239Z,8.28
2022-09-10T07:56:36.288Z,8.33
2022-09-10T07:59:04.867Z,8.35
2022-09-10T08:01:33.418Z,8.42
2022-09-10T08:04:03.563Z,8.38
2022-09-10T08:06:33.535Z,8.35
2022-09-10T08:09:02.483Z,8.32
2022-09-10T08:11:31.299Z,8.40
2022-09-10T08:14:02.142Z,8.41
2022-09-10T08:16:30.530Z,8.35
2022-09-10T08:18:59.416Z,8.30
2022-09-10T08:21:28.547Z,8.18
2022-09-10T08:23:57.475Z,8.14
2022-09-10T08:26:27.726Z,8.02
2022-09-10T08:28:57.058Z,8.00
2022-09-10T08:31:27.606Z,7.97
2022-09-10T08:33:58.047Z,7.97
2022-09-10T08:36:27.624Z,7.94
2022-09-10T08:39:01.408Z,7.96
2022-09-10T08:41:45.618Z,7.97
2022-09-10T08:44:28.897Z,7.99
2022-09-10T08:47:24.126Z,7.92
2022-09-10T08:50:26.085Z,7.90
2022-09-10T08:53:24.219Z,7.88
2022-09-10T08:55:58.902Z,7.86
2022-09-10T08:58:54.750Z,7.81
2022-09-10T09:01:37.635Z,7.78
2022-09-10T09:04:14.590Z,7.75
2022-09-10T09:06:51.781Z,7.70
2022-09-10T09:09:20.534Z,7.68
2022-09-10T09:12:16.932Z,7.70
2022-09-10T09:15:06.886Z,7.68
2022-09-10T09:18:22.310Z,7.59
2022-09-10T09:20:56.473Z,7.54
2022-09-10T09:24:03.035Z,7.54
2022-09-10T09:26:39.606Z,7.54
2022-09-10T09:29:20.573Z,7.53
2022-09-10T09:31:52.967Z,7.51
2022-09-10T09:34:30.491Z,7.51
2022-09-10T09:37:02.203Z,7.51
2022-09-10T09:40:06.940Z,7.51
2022-09-10T09:42:46.717Z,7.50
2022-09-10T09:45:38.583Z,7.47
2022-09-10T09:48:08.971Z,7.46
2022-09-10T09:50:43.296Z,7.43
2022-09-10T09:53:21.735Z,7.41
2022-09-10T09:56:00.208Z,7.39
2022-09-10T09:58:31.803Z,7.39
2022-09-10T10:01:06.415Z,7.32
2022-09-10T10:04:04.047Z,7.34
2022-09-10T10:06:35.865Z,7.33
2022-09-10T10:09:24.471Z,7.36
2022-09-10T10:11:56.666Z,7.41
2022-09-10T10:14:40.641Z,7.37
2022-09-10T10:17:32.625Z,7.33
2022-09-10T10:20:03.520Z,7.34
2022-09-10T10:22:33.128Z,7.32
2022-09-10T10:25:03.292Z,7.27
2022-09-10T10:27:44.156Z,7.23
2022-09-10T10:30:18.536Z,7.25
2022-09-10T10:33:05.636Z,7.23
2022-09-10T10:35:48.079Z,7.25
2022-09-10T10:38:37.056Z,7.26
2022-09-10T10:41:06.719Z,7.23
2022-09-10T10:43:58.406Z,7.27
2022-09-10T10:46:29.923Z,7.28
2022-09-10T10:49:33.889Z,7.30
2022-09-10T10:52:36.384Z,7.29
2022-09-10T10:55:24.449Z,7.27
2022-09-10T10:58:14.907Z,7.21
2022-09-10T11:00:53.471Z,7.18
2022-09-10T11:03:33.114Z,7.18
2022-09-10T11:06:24.766Z,7.15
2022-09-10T11:09:15.134Z,7.09
2022-09-10T11:12:08.089Z,7.05
2022-09-10T11:14:51.033Z,7.06
2022-09-10T11:17:42.517Z,7.00
2022-09-10T11:20:29.654Z,6.94
2022-09-10T11:23:12.216Z,6.95
2022-09-10T11:26:14.727Z,6.88
2022-09-10T11:29:14.586Z,6.83
2022-09-10T11:31:55.171Z,6.82
2022-09-10T11:34:30.121Z,6.73
2022-09-10T11:37:11.236Z,6.65
2022-09-10T11:39:47.856Z,6.67
2022-09-10T11:42:41.079Z,6.63
2022-09-10T11:45:26.322Z,6.54
2022-09-10T11:48:03.776Z,6.50
2022-09-10T11:50:39.192Z,6.44
2022-09-10T11:53:08.678Z,6.45
2022-09-10T11:56:29.146Z,6.43
2022-09-10T11:59:43.575Z,6.37
2022-09-10T12:02:46.935Z,6.37
2022-09-10T12:05:34.190Z,6.32
2022-09-10T12:08:15.131Z,6.31
2022-09-10T12:11:16.443Z,6.31
2022-09-10T12:13:47.036Z,6.24
2022-09-10T12:16:21.485Z,6.18
2022-09-10T12:18:56.549Z,6.18
2022-09-10T12:21:35.626Z,6.16
2022-09-10T12:24:22.813Z,6.05
2022-09-10T12:26:51.195Z,6.03
2022-09-10T12:29:42.035Z,6.06
2022-09-10T12:32:14.866Z,5.96
2022-09-10T12:34:43.962Z,5.93
2022-09-10T12:37:12.477Z,5.93
2022-09-10T12:39:41.034Z,5.86
2022-09-10T12:42:31.330Z,5.85
2022-09-10T12:45:00.088Z,5.86
2022-09-10T12:47:48.064Z,5.88
2022-09-10T12:50:29.971Z,5.80
2022-09-10T12:53:07.764Z,5.81
2022-09-10T12:55:52.022Z,5.88
2022-09-10T12:58:47.516Z,5.89
2022-09-10T13:01:40.319Z,5.87
2022-09-10T13:04:25.993Z,5.86
2022-09-10T13:07:00.580Z,5.88
2022-09-10T13:09:34.060Z,5.88
2022-09-10T13:12:07.417Z,5.91
2022-09-10T13:14:39.441Z,5.91
2022-09-10T13:17:08.221Z,5.95
2022-09-10T13:19:37.977Z,5.98
2022-09-10T13:22:34.743Z,5.99
2022-09-10T13:25:25.184Z,6.01
2022-09-10T13:27:53.872Z,6.02
2022-09-10T13:30:24.889Z,6.00
2022-09-10T13:32:58.019Z,6.03
2022-09-10T13:35:42.562Z,6.03
2022-09-10T13:38:25.143Z,6.06
2022-09-10T13:40:53.628Z,6.08
2022-09-10T13:43:42.299Z,6.13
2022-09-10T13:46:22.356Z,6.16
2022-09-10T13:49:19.917Z,6.19
2022-09-10T13:51:55.457Z,6.22
2022-09-10T13:54:26.780Z,6.31
2022-09-10T13:56:56.644Z,6.33
2022-09-10T13:59:32.188Z,6.36
2022-09-10T14:02:03.853Z,6.39
2022-09-10T14:04:38.433Z,6.42
2022-09-10T14:07:14.294Z,6.53
2022-09-10T14:09:50.200Z,6.63
2022-09-10T14:12:22.198Z,6.71
2022-09-10T14:14:57.087Z,6.85
2022-09-10T14:17:42.463Z,6.89
2022-09-10T14:20:27.835Z,6.95
2022-09-10T14:23:04.084Z,7.00
2022-09-10T14:25:36.250Z,7.03
2022-09-10T14:28:28.227Z,7.06
2022-09-10T14:31:24.915Z,7.07
2022-09-10T14:33:55.014Z,7.15
2022-09-10T14:36:41.445Z,7.23
2022-09-10T14:39:24.086Z,7.25
2022-09-10T14:42:11.598Z,7.36
2022-09-10T14:44:44.674Z,7.36
2022-09-10T14:47:14.010Z,7.41
2022-09-10T14:49:46.431Z,7.48
2022-09-10T14:52:15.319Z,7.53
2022-09-10T14:54:43.921Z,7.57
2022-09-10T14:57:17.945Z,7.60
2022-09-10T14:59:53.127Z,7.65
2022-09-10T15:02:28.528Z,7.73
2022-09-10T15:04:57.122Z,7.81
2022-09-10T15:07:25.980Z,7.94
2022-09-10T15:09:55.045Z,7.99
2022-09-10T15:12:27.970Z,8.11
2022-09-10T15:14:56.761Z,8.15
2022-09-10T15:17:25.280Z,8.20
2022-09-10T15:19:54.780Z,8.29
2022-09-10T15:22:30.747Z,8.36
2022-09-10T15:25:11.165Z,8.41
2022-09-10T15:27:40.374Z,8.54
2022-09-10T15:30:09.426Z,8.68
2022-09-10T15:32:37.985Z,8.74
2022-09-10T15:35:07.089Z,8.83
2022-09-10T15:37:35.824Z,8.86
2022-09-10T15:40:05.657Z,9.00
2022-09-10T15:42:34.322Z,9.06
2022-09-10T15:45:02.871Z,9.11
2022-09-10T15:47:34.654Z,9.08
2022-09-10T15:50:03.646Z,9.20
2022-09-10T15:52:32.271Z,9.34
2022-09-10T15:55:00.794Z,9.34
2022-09-10T15:57:29.623Z,9.45
2022-09-10T15:59:58.402Z,9.57
2022-09-10T16:02:27.071Z,9.51
2022-09-10T16:04:55.641Z,9.63
2022-09-10T16:07:24.236Z,9.79
2022-09-10T16:09:52.801Z,9.89
2022-09-10T16:12:21.437Z,10.07
2022-09-10T16:14:49.958Z,10.22
2022-09-10T16:17:18.623Z,10.39
2022-09-10T16:19:47.179Z,10.49
2022-09-10T16:22:20.652Z,10.54
2022-09-10T16:24:49.306Z,10.71
2022-09-10T16:27:18.707Z,10.94
2022-09-10T16:29:48.343Z,11.11
2022-09-10T16:32:16.937Z,11.31
2022-09-10T16:34:45.213Z,11.51
2022-09-10T16:37:13.714Z,11.51
2022-09-10T16:39:42.486Z,11.91
2022-09-10T16:42:10.854Z,11.97
2022-09-10T16:44:39.983Z,12.09
2022-09-10T16:47:08.779Z,12.59
2022-09-10T16:49:37.365Z,12.61
2022-09-10T16:52:06.459Z,12.89
2022-09-10T16:54:35.228Z,13.24
2022-09-10T16:57:03.748Z,13.48
2022-09-10T16:59:32.394Z,13.57
2022-09-10T17:02:01.569Z,14.18
2022-09-10T17:04:30.203Z,14.30
2022-09-10T17:06:59.452Z,14.59
2022-09-10T17:09:28.188Z,14.57
2022-09-10T17:11:57.084Z,15.01
2022-09-10T17:14:25.755Z,15.31
2022-09-10T17:16:54.681Z,15.16
2022-09-10T17:19:27.484Z,15.79
2022-09-10T17:21:57.452Z,16.08
2022-09-10T17:24:27.506Z,16.44
2022-09-10T17:26:59.432Z,16.70
2022-09-10T17:29:27.905Z,17.15
2022-09-10T17:31:59.800Z,16.35
2022-09-10T17:34:29.391Z,16.57
2022-09-10T17:36:58.123Z,16.88
2022-09-10T17:39:29.607Z,17.40
2022-09-10T17:41:58.317Z,17.66
2022-09-10T17:44:28.139Z,17.57
2022-09-10T17:46:56.485Z,17.49
2022-09-10T17:49:25.410Z,18.14
2022-09-10T17:51:54.231Z,18.21
2022-09-10T17:54:22.650Z,18.89
2022-09-10T17:56:51.365Z,19.33
2022-09-10T17:59:20.058Z,19.08
2022-09-10T18:01:49.185Z,19.51
2022-09-10T18:04:17.728Z,20.03
2022-09-10T18:06:50.282Z,19.78
2022-09-10T18:09:21.150Z,19.49
2022-09-10T18:11:49.771Z,19.27
2022-09-10T18:14:19.780Z,19.59
2022-09-10T18:16:48.810Z,19.69
2022-09-10T18:19:19.136Z,19.69
2022-09-10T18:21:48.994Z,19.95
2022-09-10T18:24:25.417Z,19.79
2022-09-10T18:26:56.357Z,20.20
2022-09-10T18:29:37.513Z,20.14
2022-09-10T18:32:11.113Z,20.32
2022-09-10T18:34:42.533Z,20.48
2022-09-10T18:37:12.445Z,20.53
2022-09-10T18:39:42.811Z,20.57
2022-09-10T18:42:12.549Z,20.18
2022-09-10T18:44:42.506Z,20.58
2022-09-10T18:47:34.086Z,20.77
2022-09-10T18:50:01.756Z,20.68
2022-09-10T18:52:31.521Z,20.91
2022-09-10T18:55:00.767Z,20.96
2022-09-10T18:57:29.344Z,21.17
2022-09-10T18:59:58.192Z,21.33
2022-09-10T19:02:26.729Z,21.44
2022-09-10T19:05:10.723Z,21.03
2022-09-10T19:07:40.217Z,21.42
2022-09-10T19:10:10.137Z,21.29
2022-09-10T19:12:38.714Z,21.73
2022-09-10T19:15:07.886Z,21.43
2022-09-10T19:17:36.596Z,21.75
2022-09-10T19:20:05.700Z,21.41
2022-09-10T19:22:35.131Z,21.53
2022-09-10T19:25:04.863Z,21.80
2022-09-10T19:27:35.518Z,21.98
2022-09-10T19:30:04.047Z,21.99
2022-09-10T19:32:32.727Z,22.46
2022-09-10T19:35:01.315Z,22.28
2022-09-10T19:37:29.947Z,21.78
2022-09-10T19:39:58.613Z,21.92
2022-09-10T19:42:27.227Z,21.90
2022-09-10T19:44:56.003Z,21.96
2022-09-10T19:47:25.917Z,22.02
2022-09-10T19:49:54.458Z,22.16
2022-09-10T19:52:25.344Z,21.84
2022-09-10T19:54:53.911Z,21.95
2022-09-10T19:57:22.975Z,21.75
2022-09-10T19:59:51.487Z,21.69
2022-09-10T20:02:20.449Z,21.84
2022-09-10T20:04:48.819Z,21.64
2022-09-10T20:07:17.583Z,21.68
2022-09-10T20:09:46.157Z,22.07
2022-09-10T20:12:17.758Z,22.24
2022-09-10T20:14:46.424Z,21.94
2022-09-10T20:17:15.613Z,21.75
2022-09-10T20:22:12.828Z,22.03
2022-09-10T20:24:41.413Z,22.14
2022-09-10T20:27:09.984Z,22.43
2022-09-10T20:29:38.533Z,22.20
2022-09-10T20:32:08.091Z,22.32
2022-09-10T20:34:38.010Z,22.23
2022-09-10T20:37:06.553Z,21.87
2022-09-10T20:39:35.843Z,21.87
2022-09-10T20:42:05.990Z,22.33
2022-09-10T20:44:34.553Z,22.04
2022-09-10T20:47:04.804Z,22.19
2022-09-10T20:49:33.705Z,21.67
2022-09-10T20:52:02.328Z,21.73
2022-09-10T20:54:30.922Z,21.92
2022-09-10T20:56:59.643Z,22.32
2022-09-10T20:59:28.300Z,22.65
2022-09-10T21:01:57.948Z,22.64
2022-09-10T21:04:27.448Z,22.69
2022-09-10T21:06:56.483Z,22.44
2022-09-10T21:09:25.078Z,22.59
2022-09-10T21:11:53.411Z,22.58
2022-09-10T21:14:22.311Z,22.71
2022-09-10T21:16:50.620Z,22.62
2022-09-10T21:19:19.281Z,22.69
2022-09-10T21:21:50.072Z,22.83
2022-09-10T21:24:21.532Z,22.62
2022-09-10T21:26:51.413Z,22.81
2022-09-10T21:29:22.315Z,22.76
2022-09-10T21:31:51.902Z,22.83
2022-09-10T21:34:20.646Z,22.94
2022-09-10T21:36:48.989Z,22.71
2022-09-10T21:39:19.039Z,22.89
2022-09-10T21:41:50.395Z,22.70
2022-09-10T21:44:23.449Z,22.45
2022-09-10T21:46:52.767Z,22.77
2022-09-10T21:49:22.356Z,22.60
2022-09-10T21:51:51.412Z,22.45
2022-09-10T21:54:22.540Z,22.74
2022-09-10T21:56:51.861Z,22.78
2022-09-10T21:59:21.514Z,22.78
2022-09-10T22:01:50.226Z,22.93
2022-09-10T22:04:22.906Z,22.76
2022-09-10T22:06:52.506Z,22.71
2022-09-10T22:09:22.559Z,22.83
2022-09-10T22:11:53.228Z,22.94
2022-09-10T22:14:26.875Z,23.05
2022-09-10T22:16:56.337Z,22.96
2022-09-10T22:19:27.107Z,23.10
2022-09-10T22:21:58.428Z,23.02
2022-09-10T22:24:27.453Z,23.02
2022-09-10T22:26:56.059Z,22.93
2022-09-10T22:29:24.998Z,23.03
2022-09-10T22:31:53.689Z,22.93
2022-09-10T22:34:22.374Z,23.06
2022-09-10T22:36:50.688Z,23.17
2022-09-10T22:39:22.014Z,22.98
2022-09-10T22:41:52.054Z,22.95
2022-09-10T22:44:20.907Z,22.97
2022-09-10T22:46:49.607Z,23.02
2022-09-10T22:49:18.621Z,23.09
2022-09-10T22:51:47.929Z,22.99
2022-09-10T22:54:17.501Z,23.08
2022-09-10T22:56:46.327Z,23.12
2022-09-10T22:59:16.365Z,23.08
2022-09-10T23:01:48.433Z,23.05
2022-09-10T23:04:17.802Z,22.94
2022-09-10T23:06:46.401Z,23.04
2022-09-10T23:09:18.974Z,23.08
2022-09-10T23:11:47.698Z,23.11
2022-09-10T23:14:20.071Z,23.13
2022-09-10T23:16:53.173Z,23.00
2022-09-10T23:19:25.241Z,23.04
2022-09-10T23:21:56.587Z,23.00
2022-09-10T23:24:28.418Z,23.01
2022-09-10T23:26:58.003Z,23.01
2022-09-10T23:29:26.588Z,23.03
2022-09-10T23:31:55.713Z,23.06
2022-09-10T23:34:24.837Z,23.04
2022-09-10T23:36:53.855Z,23.08
2022-09-10T23:39:24.899Z,23.01
2022-09-10T23:41:56.406Z,22.88
2022-09-10T23:44:25.120Z,22.81
2022-09-10T23:46:54.720Z,22.77
2022-09-10T23:49:25.254Z,22.78
2022-09-10T23:51:54.338Z,22.88
2022-09-10T23:54:22.909Z,22.89
2022-09-10T23:56:51.641Z,22.89
2022-09-10T23:59:20.702Z,22.81
